sensor_id;sensor_type;location;lat;lon;timestamp;temperature;humidity
29281;DHT22;25048;49.590;11.026;2023-11-21T00:00:58;7.00;99.90
29281;DHT22;25048;49.590;11.026;2023-11-21T00:03:27;7.00;99.90
29281;DHT22;25048;49.590;11.026;2023-11-21T00:05:55;7.00;99.90
29281;DHT22;25048;49.590;11.026;2023-11-21T00:08:22;7.00;99.90
29281;DHT22;25048;49.590;11.026;2023-11-21T00:10:50;7.00;99.90
29281;DHT22;25048;49.590;11.026;2023-11-21T00:13:17;7.00;99.90
29281;DHT22;25048;49.590;11.026;2023-11-21T00:15:45;7.00;99.90
29281;DHT22;25048;49.590;11.026;2023-11-21T00:18:12;7.00;99.90
29281;DHT22;25048;49.590;11.026;2023-11-21T00:20:40;7.00;99.90
29281;DHT22;25048;49.590;11.026;2023-11-21T00:23:08;7.00;99.90
29281;DHT22;25048;49.590;11.026;2023-11-21T00:25:35;7.00;99.90
29281;DHT22;25048;49.590;11.026;2023-11-21T00:28:03;7.00;99.90
29281;DHT22;25048;49.590;11.026;2023-11-21T00:30:32;7.00;99.90
29281;DHT22;25048;49.590;11.026;2023-11-21T00:32:59;7.00;99.90
29281;DHT22;25048;49.590;11.026;2023-11-21T00:35:27;7.00;99.90
29281;DHT22;25048;49.590;11.026;2023-11-21T00:37:54;7.00;99.90
29281;DHT22;25048;49.590;11.026;2023-11-21T00:40:22;7.00;99.90
29281;DHT22;25048;49.590;11.026;2023-11-21T00:42:50;6.90;99.90
29281;DHT22;25048;49.590;11.026;2023-11-21T00:45:17;7.00;99.90
29281;DHT22;25048;49.590;11.026;2023-11-21T00:47:45;7.00;99.90
29281;DHT22;25048;49.590;11.026;2023-11-21T00:50:12;7.00;99.90
29281;DHT22;25048;49.590;11.026;2023-11-21T00:52:40;7.00;99.90
29281;DHT22;25048;49.590;11.026;2023-11-21T00:55:07;7.00;99.90
29281;DHT22;25048;49.590;11.026;2023-11-21T00:57:36;7.00;99.90
29281;DHT22;25048;49.590;11.026;2023-11-21T01:00:16;7.00;99.90
29281;DHT22;25048;49.590;11.026;2023-11-21T01:02:44;7.00;99.90
29281;DHT22;25048;49.590;11.026;2023-11-21T01:05:12;7.00;99.90
29281;DHT22;25048;49.590;11.026;2023-11-21T01:07:39;6.90;99.90
29281;DHT22;25048;49.590;11.026;2023-11-21T01:10:07;6.90;99.90
29281;DHT22;25048;49.590;11.026;2023-11-21T01:12:37;6.90;99.90
29281;DHT22;25048;49.590;11.026;2023-11-21T01:15:05;6.90;99.90
29281;DHT22;25048;49.590;11.026;2023-11-21T01:17:38;6.90;99.90
29281;DHT22;25048;49.590;11.026;2023-11-21T01:20:07;6.90;99.90
29281;DHT22;25048;49.590;11.026;2023-11-21T01:22:37;6.90;99.90
29281;DHT22;25048;49.590;11.026;2023-11-21T01:25:05;6.90;99.90
29281;DHT22;25048;49.590;11.026;2023-11-21T01:27:34;6.90;99.90
29281;DHT22;25048;49.590;11.026;2023-11-21T01:30:02;6.90;99.90
29281;DHT22;25048;49.590;11.026;2023-11-21T01:32:31;7.00;99.90
29281;DHT22;25048;49.590;11.026;2023-11-21T01:34:59;6.90;99.90
29281;DHT22;25048;49.590;11.026;2023-11-21T01:37:27;6.90;99.90
29281;DHT22;25048;49.590;11.026;2023-11-21T01:39:57;7.00;99.90
29281;DHT22;25048;49.590;11.026;2023-11-21T01:42:25;7.00;99.90
29281;DHT22;25048;49.590;11.026;2023-11-21T01:44:54;7.00;99.90
29281;DHT22;25048;49.590;11.026;2023-11-21T01:47:22;7.00;99.90
29281;DHT22;25048;49.590;11.026;2023-11-21T01:49:50;7.00;99.90
29281;DHT22;25048;49.590;11.026;2023-11-21T01:52:17;7.00;99.90
29281;DHT22;25048;49.590;11.026;2023-11-21T01:54:46;7.00;99.90
29281;DHT22;25048;49.590;11.026;2023-11-21T01:57:14;7.00;99.90
29281;DHT22;25048;49.590;11.026;2023-11-21T01:59:43;7.00;99.90
29281;DHT22;25048;49.590;11.026;2023-11-21T02:02:11;7.00;99.90
29281;DHT22;25048;49.590;11.026;2023-11-21T02:04:39;7.00;99.90
29281;DHT22;25048;49.590;11.026;2023-11-21T02:07:07;7.00;99.90
29281;DHT22;25048;49.590;11.026;2023-11-21T02:09:35;6.90;99.90
29281;DHT22;25048;49.590;11.026;2023-11-21T02:12:04;6.90;99.90
29281;DHT22;25048;49.590;11.026;2023-11-21T02:14:32;6.90;99.90
29281;DHT22;25048;49.590;11.026;2023-11-21T02:16:59;6.90;99.90
29281;DHT22;25048;49.590;11.026;2023-11-21T02:19:27;6.90;99.90
29281;DHT22;25048;49.590;11.026;2023-11-21T02:22:00;6.90;99.90
29281;DHT22;25048;49.590;11.026;2023-11-21T02:24:29;6.90;99.90
29281;DHT22;25048;49.590;11.026;2023-11-21T02:26:57;6.90;99.90
29281;DHT22;25048;49.590;11.026;2023-11-21T02:29:25;6.90;99.90
29281;DHT22;25048;49.590;11.026;2023-11-21T02:31:55;6.90;99.90
29281;DHT22;25048;49.590;11.026;2023-11-21T02:34:23;6.90;99.90
29281;DHT22;25048;49.590;11.026;2023-11-21T02:36:52;6.90;99.90
29281;DHT22;25048;49.590;11.026;2023-11-21T02:39:20;6.90;99.90
29281;DHT22;25048;49.590;11.026;2023-11-21T02:41:49;6.90;99.90
29281;DHT22;25048;49.590;11.026;2023-11-21T02:44:17;7.00;99.90
29281;DHT22;25048;49.590;11.026;2023-11-21T02:46:44;7.00;99.90
29281;DHT22;25048;49.590;11.026;2023-11-21T02:49:13;7.00;99.90
29281;DHT22;25048;49.590;11.026;2023-11-21T02:51:40;7.00;99.90
29281;DHT22;25048;49.590;11.026;2023-11-21T02:54:08;7.00;99.90
29281;DHT22;25048;49.590;11.026;2023-11-21T02:56:36;7.00;99.90
29281;DHT22;25048;49.590;11.026;2023-11-21T02:59:03;7.00;99.90
29281;DHT22;25048;49.590;11.026;2023-11-21T03:01:31;7.00;99.90
29281;DHT22;25048;49.590;11.026;2023-11-21T03:03:58;7.00;99.90
29281;DHT22;25048;49.590;11.026;2023-11-21T03:06:26;7.00;99.90
29281;DHT22;25048;49.590;11.026;2023-11-21T03:08:54;7.00;99.90
29281;DHT22;25048;49.590;11.026;2023-11-21T03:11:21;7.00;99.90
29281;DHT22;25048;49.590;11.026;2023-11-21T03:13:49;7.00;99.90
29281;DHT22;25048;49.590;11.026;2023-11-21T03:16:16;7.00;99.90
29281;DHT22;25048;49.590;11.026;2023-11-21T03:18:45;7.00;99.90
29281;DHT22;25048;49.590;11.026;2023-11-21T03:21:13;7.00;99.90
29281;DHT22;25048;49.590;11.026;2023-11-21T03:23:40;7.10;99.90
29281;DHT22;25048;49.590;11.026;2023-11-21T03:26:14;7.00;99.90
29281;DHT22;25048;49.590;11.026;2023-11-21T03:28:39;7.00;99.90
29281;DHT22;25048;49.590;11.026;2023-11-21T03:31:06;7.00;99.90
29281;DHT22;25048;49.590;11.026;2023-11-21T03:33:35;7.00;99.90
29281;DHT22;25048;49.590;11.026;2023-11-21T03:36:03;7.00;99.90
29281;DHT22;25048;49.590;11.026;2023-11-21T03:38:31;7.00;99.90
29281;DHT22;25048;49.590;11.026;2023-11-21T03:40:58;7.00;99.90
29281;DHT22;25048;49.590;11.026;2023-11-21T03:43:26;7.00;99.90
29281;DHT22;25048;49.590;11.026;2023-11-21T03:45:53;7.00;99.90
29281;DHT22;25048;49.590;11.026;2023-11-21T03:48:21;7.00;99.90
29281;DHT22;25048;49.590;11.026;2023-11-21T03:50:49;7.00;99.90
29281;DHT22;25048;49.590;11.026;2023-11-21T03:53:17;7.00;99.90
29281;DHT22;25048;49.590;11.026;2023-11-21T03:55:44;7.00;99.90
29281;DHT22;25048;49.590;11.026;2023-11-21T03:58:12;7.00;99.90
29281;DHT22;25048;49.590;11.026;2023-11-21T04:00:39;7.00;99.90
29281;DHT22;25048;49.590;11.026;2023-11-21T04:03:07;7.00;99.90
29281;DHT22;25048;49.590;11.026;2023-11-21T04:05:34;7.00;99.90
29281;DHT22;25048;49.590;11.026;2023-11-21T04:08:02;7.00;99.90
29281;DHT22;25048;49.590;11.026;2023-11-21T04:10:29;7.00;99.90
29281;DHT22;25048;49.590;11.026;2023-11-21T04:12:57;7.00;99.90
29281;DHT22;25048;49.590;11.026;2023-11-21T04:15:24;7.00;99.90
29281;DHT22;25048;49.590;11.026;2023-11-21T04:17:52;7.00;99.90
29281;DHT22;25048;49.590;11.026;2023-11-21T04:20:20;7.00;99.90
29281;DHT22;25048;49.590;11.026;2023-11-21T04:22:49;7.00;99.90
29281;DHT22;25048;49.590;11.026;2023-11-21T04:25:16;7.00;99.90
29281;DHT22;25048;49.590;11.026;2023-11-21T04:27:45;7.00;99.90
29281;DHT22;25048;49.590;11.026;2023-11-21T04:30:13;7.00;99.90
29281;DHT22;25048;49.590;11.026;2023-11-21T04:32:41;7.00;99.90
29281;DHT22;25048;49.590;11.026;2023-11-21T04:35:09;7.00;99.90
29281;DHT22;25048;49.590;11.026;2023-11-21T04:37:36;7.00;99.90
29281;DHT22;25048;49.590;11.026;2023-11-21T04:40:04;7.10;99.90
29281;DHT22;25048;49.590;11.026;2023-11-21T04:42:35;7.10;99.90
29281;DHT22;25048;49.590;11.026;2023-11-21T04:45:04;7.10;99.90
29281;DHT22;25048;49.590;11.026;2023-11-21T04:47:34;7.10;99.90
29281;DHT22;25048;49.590;11.026;2023-11-21T04:50:02;7.10;99.90
29281;DHT22;25048;49.590;11.026;2023-11-21T04:52:30;7.10;99.90
29281;DHT22;25048;49.590;11.026;2023-11-21T04:54:59;7.10;99.90
29281;DHT22;25048;49.590;11.026;2023-11-21T04:57:28;7.10;99.90
29281;DHT22;25048;49.590;11.026;2023-11-21T04:59:55;7.10;99.90
29281;DHT22;25048;49.590;11.026;2023-11-21T05:02:23;7.10;99.90
29281;DHT22;25048;49.590;11.026;2023-11-21T05:04:50;7.10;99.90
29281;DHT22;25048;49.590;11.026;2023-11-21T05:07:19;7.10;99.90
29281;DHT22;25048;49.590;11.026;2023-11-21T05:09:47;7.10;99.90
29281;DHT22;25048;49.590;11.026;2023-11-21T05:12:14;7.10;99.90
29281;DHT22;25048;49.590;11.026;2023-11-21T05:14:42;7.10;99.90
29281;DHT22;25048;49.590;11.026;2023-11-21T05:17:09;7.10;99.90
29281;DHT22;25048;49.590;11.026;2023-11-21T05:19:37;7.10;99.90
29281;DHT22;25048;49.590;11.026;2023-11-21T05:22:05;7.10;99.90
29281;DHT22;25048;49.590;11.026;2023-11-21T05:24:34;7.10;99.90
29281;DHT22;25048;49.590;11.026;2023-11-21T05:27:02;7.10;99.90
29281;DHT22;25048;49.590;11.026;2023-11-21T05:29:29;7.20;99.90
29281;DHT22;25048;49.590;11.026;2023-11-21T05:31:57;7.10;99.90
29281;DHT22;25048;49.590;11.026;2023-11-21T05:34:25;7.10;99.90
29281;DHT22;25048;49.590;11.026;2023-11-21T05:36:52;7.10;99.90
29281;DHT22;25048;49.590;11.026;2023-11-21T05:39:20;7.10;99.90
29281;DHT22;25048;49.590;11.026;2023-11-21T05:41:48;7.10;99.90
29281;DHT22;25048;49.590;11.026;2023-11-21T05:44:16;7.10;99.90
29281;DHT22;25048;49.590;11.026;2023-11-21T05:46:43;7.10;99.90
29281;DHT22;25048;49.590;11.026;2023-11-21T05:49:11;7.10;99.90
29281;DHT22;25048;49.590;11.026;2023-11-21T05:51:38;7.10;99.90
29281;DHT22;25048;49.590;11.026;2023-11-21T05:54:06;7.10;99.90
29281;DHT22;25048;49.590;11.026;2023-11-21T05:56:34;7.00;99.90
29281;DHT22;25048;49.590;11.026;2023-11-21T05:59:02;7.00;99.90
29281;DHT22;25048;49.590;11.026;2023-11-21T06:01:29;7.10;99.90
29281;DHT22;25048;49.590;11.026;2023-11-21T06:03:57;7.10;99.90
29281;DHT22;25048;49.590;11.026;2023-11-21T06:06:25;7.10;99.90
29281;DHT22;25048;49.590;11.026;2023-11-21T06:08:52;7.10;99.90
29281;DHT22;25048;49.590;11.026;2023-11-21T06:11:20;7.10;99.90
29281;DHT22;25048;49.590;11.026;2023-11-21T06:13:47;7.10;99.90
29281;DHT22;25048;49.590;11.026;2023-11-21T06:16:16;7.10;99.90
29281;DHT22;25048;49.590;11.026;2023-11-21T06:18:48;7.10;99.90
29281;DHT22;25048;49.590;11.026;2023-11-21T06:21:17;7.10;99.90
29281;DHT22;25048;49.590;11.026;2023-11-21T06:23:46;7.10;99.90
29281;DHT22;25048;49.590;11.026;2023-11-21T06:26:14;7.10;99.90
29281;DHT22;25048;49.590;11.026;2023-11-21T06:28:41;7.10;99.90
29281;DHT22;25048;49.590;11.026;2023-11-21T06:31:09;7.10;99.90
29281;DHT22;25048;49.590;11.026;2023-11-21T06:33:37;7.10;99.90
29281;DHT22;25048;49.590;11.026;2023-11-21T06:36:05;7.10;99.90
29281;DHT22;25048;49.590;11.026;2023-11-21T06:38:32;7.10;99.90
29281;DHT22;25048;49.590;11.026;2023-11-21T06:41:01;7.10;99.90
29281;DHT22;25048;49.590;11.026;2023-11-21T06:43:28;7.10;99.90
29281;DHT22;25048;49.590;11.026;2023-11-21T06:45:57;7.10;99.90
29281;DHT22;25048;49.590;11.026;2023-11-21T06:48:25;7.10;99.90
29281;DHT22;25048;49.590;11.026;2023-11-21T06:50:53;7.10;99.90
29281;DHT22;25048;49.590;11.026;2023-11-21T06:53:20;7.10;99.90
29281;DHT22;25048;49.590;11.026;2023-11-21T06:55:48;7.10;99.90
29281;DHT22;25048;49.590;11.026;2023-11-21T06:58:15;7.10;99.90
29281;DHT22;25048;49.590;11.026;2023-11-21T07:00:43;7.10;99.90
29281;DHT22;25048;49.590;11.026;2023-11-21T07:03:12;7.20;99.90
29281;DHT22;25048;49.590;11.026;2023-11-21T07:05:40;7.20;99.90
29281;DHT22;25048;49.590;11.026;2023-11-21T07:08:07;7.20;99.90
29281;DHT22;25048;49.590;11.026;2023-11-21T07:10:36;7.20;99.90
29281;DHT22;25048;49.590;11.026;2023-11-21T07:13:04;7.20;99.90
29281;DHT22;25048;49.590;11.026;2023-11-21T07:15:33;7.20;99.90
29281;DHT22;25048;49.590;11.026;2023-11-21T07:18:00;7.20;99.90
29281;DHT22;25048;49.590;11.026;2023-11-21T07:20:28;7.20;99.90
29281;DHT22;25048;49.590;11.026;2023-11-21T07:22:56;7.20;99.90
29281;DHT22;25048;49.590;11.026;2023-11-21T07:25:24;7.30;99.90
29281;DHT22;25048;49.590;11.026;2023-11-21T07:27:52;7.30;99.90
29281;DHT22;25048;49.590;11.026;2023-11-21T07:30:21;7.30;99.90
29281;DHT22;25048;49.590;11.026;2023-11-21T07:32:49;7.40;99.90
29281;DHT22;25048;49.590;11.026;2023-11-21T07:35:16;7.40;99.90
29281;DHT22;25048;49.590;11.026;2023-11-21T07:37:44;7.40;99.90
29281;DHT22;25048;49.590;11.026;2023-11-21T07:40:13;7.50;99.90
29281;DHT22;25048;49.590;11.026;2023-11-21T07:42:41;7.50;99.90
29281;DHT22;25048;49.590;11.026;2023-11-21T07:45:09;7.60;99.90
29281;DHT22;25048;49.590;11.026;2023-11-21T07:47:37;7.60;99.90
29281;DHT22;25048;49.590;11.026;2023-11-21T07:50:06;7.70;99.90
29281;DHT22;25048;49.590;11.026;2023-11-21T07:52:34;7.70;99.90
29281;DHT22;25048;49.590;11.026;2023-11-21T07:55:01;7.80;99.90
29281;DHT22;25048;49.590;11.026;2023-11-21T07:57:29;7.80;99.90
29281;DHT22;25048;49.590;11.026;2023-11-21T07:59:56;7.90;99.90
29281;DHT22;25048;49.590;11.026;2023-11-21T08:02:24;7.90;99.90
29281;DHT22;25048;49.590;11.026;2023-11-21T08:04:52;7.90;99.90
29281;DHT22;25048;49.590;11.026;2023-11-21T08:07:20;8.00;99.90
29281;DHT22;25048;49.590;11.026;2023-11-21T08:09:48;8.00;99.90
29281;DHT22;25048;49.590;11.026;2023-11-21T08:12:16;8.00;99.90
29281;DHT22;25048;49.590;11.026;2023-11-21T08:14:45;8.00;99.90
29281;DHT22;25048;49.590;11.026;2023-11-21T08:17:13;8.00;99.90
29281;DHT22;25048;49.590;11.026;2023-11-21T08:19:40;8.00;99.90
29281;DHT22;25048;49.590;11.026;2023-11-21T08:22:08;8.00;99.90
29281;DHT22;25048;49.590;11.026;2023-11-21T08:24:35;8.00;99.90
29281;DHT22;25048;49.590;11.026;2023-11-21T08:27:04;8.00;99.90
29281;DHT22;25048;49.590;11.026;2023-11-21T08:29:33;8.00;99.90
29281;DHT22;25048;49.590;11.026;2023-11-21T08:32:03;8.10;99.90
29281;DHT22;25048;49.590;11.026;2023-11-21T08:34:31;8.10;99.90
29281;DHT22;25048;49.590;11.026;2023-11-21T08:36:59;8.10;99.90
29281;DHT22;25048;49.590;11.026;2023-11-21T08:39:27;8.20;99.90
29281;DHT22;25048;49.590;11.026;2023-11-21T08:41:57;8.30;99.90
29281;DHT22;25048;49.590;11.026;2023-11-21T08:44:25;8.30;99.90
29281;DHT22;25048;49.590;11.026;2023-11-21T08:46:52;8.40;99.90
29281;DHT22;25048;49.590;11.026;2023-11-21T08:49:20;8.50;99.90
29281;DHT22;25048;49.590;11.026;2023-11-21T08:51:47;8.60;99.90
29281;DHT22;25048;49.590;11.026;2023-11-21T08:54:15;8.60;99.90
29281;DHT22;25048;49.590;11.026;2023-11-21T08:56:44;8.70;99.90
29281;DHT22;25048;49.590;11.026;2023-11-21T08:59:13;8.70;99.90
29281;DHT22;25048;49.590;11.026;2023-11-21T09:01:43;8.70;99.90
29281;DHT22;25048;49.590;11.026;2023-11-21T09:04:11;8.70;99.90
29281;DHT22;25048;49.590;11.026;2023-11-21T09:06:39;8.70;99.90
29281;DHT22;25048;49.590;11.026;2023-11-21T09:09:07;8.70;99.90
29281;DHT22;25048;49.590;11.026;2023-11-21T09:11:37;8.70;99.90
29281;DHT22;25048;49.590;11.026;2023-11-21T09:14:04;8.70;99.90
29281;DHT22;25048;49.590;11.026;2023-11-21T09:16:32;8.80;99.90
29281;DHT22;25048;49.590;11.026;2023-11-21T09:18:59;8.90;99.90
29281;DHT22;25048;49.590;11.026;2023-11-21T09:21:27;9.00;99.90
29281;DHT22;25048;49.590;11.026;2023-11-21T09:23:55;9.10;99.90
29281;DHT22;25048;49.590;11.026;2023-11-21T09:26:22;9.20;99.90
29281;DHT22;25048;49.590;11.026;2023-11-21T09:28:50;9.30;99.90
29281;DHT22;25048;49.590;11.026;2023-11-21T09:31:17;9.40;99.90
29281;DHT22;25048;49.590;11.026;2023-11-21T09:33:46;9.40;99.90
29281;DHT22;25048;49.590;11.026;2023-11-21T09:36:14;9.40;99.90
29281;DHT22;25048;49.590;11.026;2023-11-21T09:38:42;9.50;99.90
29281;DHT22;25048;49.590;11.026;2023-11-21T09:41:15;9.50;99.90
29281;DHT22;25048;49.590;11.026;2023-11-21T09:43:42;9.40;99.90
29281;DHT22;25048;49.590;11.026;2023-11-21T09:46:12;9.50;99.90
29281;DHT22;25048;49.590;11.026;2023-11-21T09:48:42;9.40;99.90
29281;DHT22;25048;49.590;11.026;2023-11-21T09:51:11;9.50;99.90
29281;DHT22;25048;49.590;11.026;2023-11-21T09:53:40;9.50;99.90
29281;DHT22;25048;49.590;11.026;2023-11-21T09:56:10;9.50;99.90
29281;DHT22;25048;49.590;11.026;2023-11-21T09:58:38;9.60;99.90
29281;DHT22;25048;49.590;11.026;2023-11-21T10:01:06;9.60;99.90
29281;DHT22;25048;49.590;11.026;2023-11-21T10:03:35;9.60;99.90
29281;DHT22;25048;49.590;11.026;2023-11-21T10:06:05;9.70;99.90
29281;DHT22;25048;49.590;11.026;2023-11-21T10:08:34;9.70;99.90
29281;DHT22;25048;49.590;11.026;2023-11-21T10:11:03;9.80;99.90
29281;DHT22;25048;49.590;11.026;2023-11-21T10:13:33;9.90;99.90
29281;DHT22;25048;49.590;11.026;2023-11-21T10:16:02;9.90;99.90
29281;DHT22;25048;49.590;11.026;2023-11-21T10:18:32;10.00;99.90
29281;DHT22;25048;49.590;11.026;2023-11-21T10:21:01;10.10;99.90
29281;DHT22;25048;49.590;11.026;2023-11-21T10:23:30;10.10;99.90
29281;DHT22;25048;49.590;11.026;2023-11-21T10:25:58;10.10;99.90
29281;DHT22;25048;49.590;11.026;2023-11-21T10:28:26;10.20;99.90
29281;DHT22;25048;49.590;11.026;2023-11-21T10:30:53;10.20;99.90
29281;DHT22;25048;49.590;11.026;2023-11-21T10:33:28;10.20;99.90
29281;DHT22;25048;49.590;11.026;2023-11-21T10:35:56;10.30;99.90
29281;DHT22;25048;49.590;11.026;2023-11-21T10:38:24;10.30;99.90
29281;DHT22;25048;49.590;11.026;2023-11-21T10:40:53;10.30;99.90
29281;DHT22;25048;49.590;11.026;2023-11-21T10:43:25;10.40;99.90
29281;DHT22;25048;49.590;11.026;2023-11-21T10:45:53;10.50;99.90
29281;DHT22;25048;49.590;11.026;2023-11-21T10:48:23;10.50;99.90
29281;DHT22;25048;49.590;11.026;2023-11-21T10:50:52;10.60;99.90
29281;DHT22;25048;49.590;11.026;2023-11-21T10:53:21;10.60;99.90
29281;DHT22;25048;49.590;11.026;2023-11-21T10:55:49;10.70;99.90
29281;DHT22;25048;49.590;11.026;2023-11-21T10:58:17;10.70;99.90
29281;DHT22;25048;49.590;11.026;2023-11-21T11:00:45;10.70;99.90
29281;DHT22;25048;49.590;11.026;2023-11-21T11:03:12;10.80;99.90
29281;DHT22;25048;49.590;11.026;2023-11-21T11:05:44;10.70;99.90
29281;DHT22;25048;49.590;11.026;2023-11-21T11:08:15;10.70;99.90
29281;DHT22;25048;49.590;11.026;2023-11-21T11:10:50;10.60;99.90
29281;DHT22;25048;49.590;11.026;2023-11-21T11:13:19;10.60;99.90
29281;DHT22;25048;49.590;11.026;2023-11-21T11:15:54;10.60;99.90
29281;DHT22;25048;49.590;11.026;2023-11-21T11:18:22;10.60;99.90
29281;DHT22;25048;49.590;11.026;2023-11-21T11:20:51;10.60;99.90
29281;DHT22;25048;49.590;11.026;2023-11-21T11:23:40;10.60;99.90
29281;DHT22;25048;49.590;11.026;2023-11-21T11:31:48;10.60;99.90
29281;DHT22;25048;49.590;11.026;2023-11-21T11:34:18;10.50;99.90
29281;DHT22;25048;49.590;11.026;2023-11-21T11:37:00;10.40;99.90
29281;DHT22;25048;49.590;11.026;2023-11-21T11:39:40;10.40;99.90
29281;DHT22;25048;49.590;11.026;2023-11-21T11:42:18;10.40;99.90
29281;DHT22;25048;49.590;11.026;2023-11-21T11:44:49;10.40;99.90
29281;DHT22;25048;49.590;11.026;2023-11-21T11:47:31;10.40;99.90
29281;DHT22;25048;49.590;11.026;2023-11-21T11:50:11;10.50;99.90
29281;DHT22;25048;49.590;11.026;2023-11-21T11:52:44;10.50;99.90
29281;DHT22;25048;49.590;11.026;2023-11-21T11:55:16;10.60;99.90
29281;DHT22;25048;49.590;11.026;2023-11-21T11:57:52;10.60;99.90
29281;DHT22;25048;49.590;11.026;2023-11-21T12:00:33;10.60;99.90
29281;DHT22;25048;49.590;11.026;2023-11-21T12:03:00;10.60;99.90
29281;DHT22;25048;49.590;11.026;2023-11-21T12:05:32;10.60;99.90
29281;DHT22;25048;49.590;11.026;2023-11-21T12:08:07;10.60;99.90
29281;DHT22;25048;49.590;11.026;2023-11-21T12:10:38;10.60;99.90
29281;DHT22;25048;49.590;11.026;2023-11-21T12:13:10;10.60;99.90
29281;DHT22;25048;49.590;11.026;2023-11-21T12:15:40;10.70;99.90
29281;DHT22;25048;49.590;11.026;2023-11-21T12:18:11;10.70;99.90
29281;DHT22;25048;49.590;11.026;2023-11-21T12:20:40;10.70;99.90
29281;DHT22;25048;49.590;11.026;2023-11-21T12:23:10;10.70;99.90
29281;DHT22;25048;49.590;11.026;2023-11-21T12:25:40;10.70;99.90
29281;DHT22;25048;49.590;11.026;2023-11-21T12:28:11;10.70;99.90
29281;DHT22;25048;49.590;11.026;2023-11-21T12:30:45;10.70;99.90
29281;DHT22;25048;49.590;11.026;2023-11-21T12:33:23;10.70;99.90
29281;DHT22;25048;49.590;11.026;2023-11-21T12:35:52;10.70;99.90
29281;DHT22;25048;49.590;11.026;2023-11-21T12:38:20;10.70;99.90
29281;DHT22;25048;49.590;11.026;2023-11-21T12:40:49;10.70;99.90
29281;DHT22;25048;49.590;11.026;2023-11-21T12:43:17;10.70;99.90
29281;DHT22;25048;49.590;11.026;2023-11-21T12:45:51;10.70;99.90
29281;DHT22;25048;49.590;11.026;2023-11-21T12:51:50;10.70;99.90
29281;DHT22;25048;49.590;11.026;2023-11-21T12:54:35;10.70;99.90
29281;DHT22;25048;49.590;11.026;2023-11-21T12:57:09;10.70;99.90
29281;DHT22;25048;49.590;11.026;2023-11-21T12:59:40;10.70;99.90
29281;DHT22;25048;49.590;11.026;2023-11-21T13:02:09;10.70;99.90
29281;DHT22;25048;49.590;11.026;2023-11-21T13:04:40;10.70;99.90
29281;DHT22;25048;49.590;11.026;2023-11-21T13:07:08;10.80;99.90
29281;DHT22;25048;49.590;11.026;2023-11-21T13:09:47;10.90;99.90
29281;DHT22;25048;49.590;11.026;2023-11-21T13:12:28;11.00;99.90
29281;DHT22;25048;49.590;11.026;2023-11-21T13:14:55;11.10;99.90
29281;DHT22;25048;49.590;11.026;2023-11-21T13:17:27;11.20;99.90
29281;DHT22;25048;49.590;11.026;2023-11-21T13:19:54;11.40;99.90
29281;DHT22;25048;49.590;11.026;2023-11-21T13:22:24;11.60;99.90
29281;DHT22;25048;49.590;11.026;2023-11-21T13:24:54;11.70;99.90
29281;DHT22;25048;49.590;11.026;2023-11-21T13:27:22;12.00;99.90
29281;DHT22;25048;49.590;11.026;2023-11-21T13:29:52;12.20;99.90
29281;DHT22;25048;49.590;11.026;2023-11-21T13:32:20;12.30;99.90
29281;DHT22;25048;49.590;11.026;2023-11-21T13:34:50;12.40;99.90
29281;DHT22;25048;49.590;11.026;2023-11-21T13:37:19;12.70;99.90
29281;DHT22;25048;49.590;11.026;2023-11-21T13:39:46;12.90;99.90
29281;DHT22;25048;49.590;11.026;2023-11-21T13:42:16;13.30;99.90
29281;DHT22;25048;49.590;11.026;2023-11-21T13:44:43;13.30;99.90
29281;DHT22;25048;49.590;11.026;2023-11-21T13:47:12;13.30;99.90
29281;DHT22;25048;49.590;11.026;2023-11-21T13:49:40;12.90;99.90
29281;DHT22;25048;49.590;11.026;2023-11-21T13:52:08;12.50;99.90
29281;DHT22;25048;49.590;11.026;2023-11-21T13:54:37;12.10;99.90
29281;DHT22;25048;49.590;11.026;2023-11-21T13:57:05;12.00;99.90
29281;DHT22;25048;49.590;11.026;2023-11-21T13:59:32;11.80;99.90
29281;DHT22;25048;49.590;11.026;2023-11-21T14:02:00;11.70;99.90
29281;DHT22;25048;49.590;11.026;2023-11-21T14:04:29;11.60;99.90
29281;DHT22;25048;49.590;11.026;2023-11-21T14:06:58;11.50;99.90
29281;DHT22;25048;49.590;11.026;2023-11-21T14:09:28;11.50;99.90
29281;DHT22;25048;49.590;11.026;2023-11-21T14:12:02;11.30;99.90
29281;DHT22;25048;49.590;11.026;2023-11-21T14:14:32;11.20;99.90
29281;DHT22;25048;49.590;11.026;2023-11-21T14:17:00;11.10;99.90
29281;DHT22;25048;49.590;11.026;2023-11-21T14:19:29;11.00;99.90
29281;DHT22;25048;49.590;11.026;2023-11-21T14:21:59;10.90;99.90
29281;DHT22;25048;49.590;11.026;2023-11-21T14:24:27;10.80;99.90
29281;DHT22;25048;49.590;11.026;2023-11-21T14:26:55;10.80;99.90
29281;DHT22;25048;49.590;11.026;2023-11-21T14:29:23;10.70;99.90
29281;DHT22;25048;49.590;11.026;2023-11-21T14:31:51;10.70;99.90
29281;DHT22;25048;49.590;11.026;2023-11-21T14:34:20;10.60;99.90
29281;DHT22;25048;49.590;11.026;2023-11-21T14:36:48;10.50;99.90
29281;DHT22;25048;49.590;11.026;2023-11-21T14:39:15;10.40;99.90
29281;DHT22;25048;49.590;11.026;2023-11-21T14:41:45;10.40;99.90
29281;DHT22;25048;49.590;11.026;2023-11-21T14:44:12;10.30;99.90
29281;DHT22;25048;49.590;11.026;2023-11-21T14:46:41;10.20;99.90
29281;DHT22;25048;49.590;11.026;2023-11-21T15:29:22;8.90;99.90
29281;DHT22;25048;49.590;11.026;2023-11-21T15:31:50;8.80;99.90
29281;DHT22;25048;49.590;11.026;2023-11-21T15:34:19;8.80;99.90
29281;DHT22;25048;49.590;11.026;2023-11-21T15:36:47;8.80;99.90
29281;DHT22;25048;49.590;11.026;2023-11-21T15:39:17;8.80;99.90
29281;DHT22;25048;49.590;11.026;2023-11-21T15:42:03;8.80;99.90
29281;DHT22;25048;49.590;11.026;2023-11-21T15:44:33;8.80;99.90
29281;DHT22;25048;49.590;11.026;2023-11-21T15:47:00;8.80;99.90
29281;DHT22;25048;49.590;11.026;2023-11-21T15:49:31;8.80;99.90
29281;DHT22;25048;49.590;11.026;2023-11-21T15:52:00;8.80;99.90
29281;DHT22;25048;49.590;11.026;2023-11-21T15:54:29;8.80;99.90
29281;DHT22;25048;49.590;11.026;2023-11-21T15:56:56;8.80;99.90
29281;DHT22;25048;49.590;11.026;2023-11-21T15:59:26;8.80;99.90
29281;DHT22;25048;49.590;11.026;2023-11-21T16:01:55;8.80;99.90
29281;DHT22;25048;49.590;11.026;2023-11-21T16:04:23;8.80;99.90
29281;DHT22;25048;49.590;11.026;2023-11-21T16:06:53;8.70;99.90
29281;DHT22;25048;49.590;11.026;2023-11-21T16:09:21;8.80;99.90
29281;DHT22;25048;49.590;11.026;2023-11-21T16:11:52;8.70;99.90
29281;DHT22;25048;49.590;11.026;2023-11-21T16:14:21;8.80;99.90
29281;DHT22;25048;49.590;11.026;2023-11-21T16:16:51;8.80;99.90
29281;DHT22;25048;49.590;11.026;2023-11-21T16:19:19;8.70;99.90
29281;DHT22;25048;49.590;11.026;2023-11-21T16:21:47;8.70;99.90
29281;DHT22;25048;49.590;11.026;2023-11-21T16:24:15;8.70;99.90
29281;DHT22;25048;49.590;11.026;2023-11-21T16:26:46;8.70;99.90